Time;durP1;ratioP1;P1;durP2;ratioP2;P2;SDS_P1;SDS_P2;PMS_P1;PMS_P2;Temp;Humidity;BMP_temperature;BMP_pressure;BME280_temperature;BME280_humidity;BME280_pressure;Samples;Min_cycle;Max_cycle;Signal;HPM_P1;HPM_P2
2023/10/17 00:03:14;;;;;;;4.23;3.93;;;8.60;86.30;;;;;;10452791;28;20209;-78
2023/10/17 00:08:36;;;;;;;3.97;3.67;;;8.60;86.40;;;;;;10457991;28;20358;-78
2023/10/17 00:14:07;;;;;;;3.27;3.07;;;8.50;87.70;;;;;;10449036;28;20229;-78
2023/10/17 00:19:31;;;;;;;3.77;3.47;;;8.50;86.40;;;;;;10460156;28;20284;-78
2023/10/17 00:24:57;;;;;;;3.97;3.67;;;8.50;86.30;;;;;;10459481;28;20199;-78
2023/10/17 00:30:21;;;;;;;3.60;3.40;;;8.50;85.80;;;;;;10453562;28;20583;-78
2023/10/17 00:35:48;;;;;;;3.83;3.53;;;8.40;86.10;;;;;;10466230;28;20234;-77
2023/10/17 00:41:18;;;;;;;3.33;3.03;;;8.40;86.40;;;;;;10450599;28;20226;-78
2023/10/17 00:46:42;;;;;;;4.60;4.20;;;8.30;86.30;;;;;;10449934;28;20193;-78
2023/10/17 00:52:04;;;;;;;3.80;3.50;;;8.20;86.50;;;;;;10442430;28;20234;-78
2023/10/17 00:57:27;;;;;;;3.93;3.70;;;8.20;86.70;;;;;;10465185;28;20231;-76
2023/10/17 01:02:58;;;;;;;3.40;3.10;;;8.10;87.30;;;;;;10457800;28;20292;-79
2023/10/17 01:08:20;;;;;;;4.90;3.57;;;8.10;87.40;;;;;;10461369;28;20218;-78
2023/10/17 01:13:43;;;;;;;6.03;4.50;;;8.10;87.60;;;;;;10445330;28;20223;-79
2023/10/17 01:19:11;;;;;;;4.03;3.77;;;8.10;87.10;;;;;;10445565;28;20237;-78
2023/10/17 01:24:34;;;;;;;5.47;4.97;;;8.10;87.60;;;;;;10443458;28;20205;-79
2023/10/17 01:29:59;;;;;;;4.40;4.10;;;8.00;87.60;;;;;;10460323;28;20237;-79
2023/10/17 01:35:22;;;;;;;4.03;3.73;;;8.00;87.30;;;;;;10463764;28;20250;-79
2023/10/17 01:40:45;;;;;;;4.30;4.00;;;7.90;87.70;;;;;;10447134;28;20253;-79
2023/10/17 01:46:14;;;;;;;5.03;4.57;;;7.90;87.80;;;;;;10446567;28;20209;-78
2023/10/17 01:51:36;;;;;;;4.57;4.27;;;7.90;87.60;;;;;;10442336;28;20239;-78
2023/10/17 01:57:06;;;;;;;4.10;3.80;;;7.90;87.60;;;;;;10461824;28;20229;-79
2023/10/17 02:02:28;;;;;;;4.40;4.10;;;7.80;88.30;;;;;;10459480;28;20290;-79
2023/10/17 02:07:51;;;;;;;4.53;4.13;;;7.80;88.20;;;;;;10462766;28;20197;-79
2023/10/17 02:13:14;;;;;;;4.53;4.23;;;7.70;88.70;;;;;;10441288;28;20217;-79
2023/10/17 02:18:37;;;;;;;4.53;4.13;;;7.70;88.40;;;;;;10451788;28;20667;-79
2023/10/17 02:24:01;;;;;;;4.13;3.83;;;7.60;88.70;;;;;;10448115;28;20631;-79
2023/10/17 02:29:26;;;;;;;4.53;4.13;;;7.60;88.80;;;;;;10445422;28;20710;-79
2023/10/17 02:34:51;;;;;;;4.50;4.10;;;7.60;88.80;;;;;;10445370;28;20210;-79
2023/10/17 02:40:20;;;;;;;4.13;3.80;;;7.60;88.80;;;;;;10455097;28;20224;-80
2023/10/17 02:45:43;;;;;;;4.27;3.97;;;7.60;89.20;;;;;;10460728;28;20249;-79
2023/10/17 02:51:11;;;;;;;4.20;3.90;;;7.70;88.70;;;;;;10460027;28;20261;-79
2023/10/17 02:56:37;;;;;;;4.00;3.70;;;7.70;88.50;;;;;;10465595;28;20338;-79
2023/10/17 03:02:05;;;;;;;5.97;4.10;;;7.60;88.40;;;;;;10465682;28;20222;-79
2023/10/17 03:07:30;;;;;;;5.10;4.80;;;7.60;88.80;;;;;;10458511;28;20211;-79
2023/10/17 03:12:55;;;;;;;5.13;4.70;;;7.50;88.90;;;;;;10446342;28;20678;-79
2023/10/17 03:18:18;;;;;;;4.53;4.13;;;7.60;89.30;;;;;;10445646;28;20234;-79
2023/10/17 03:23:46;;;;;;;4.60;4.30;;;7.50;89.80;;;;;;10452294;28;20208;-79
2023/10/17 03:29:13;;;;;;;5.30;4.90;;;7.60;89.80;;;;;;10445495;28;20243;-79
2023/10/17 03:34:37;;;;;;;4.77;4.40;;;7.60;90.00;;;;;;10441314;28;20232;-77
2023/10/17 03:40:14;;;;;;;4.90;4.60;;;7.70;90.10;;;;;;10455035;28;20215;-78
2023/10/17 03:45:43;;;;;;;4.43;4.10;;;7.70;89.90;;;;;;10451360;28;20216;-79
2023/10/17 03:51:10;;;;;;;4.77;4.47;;;7.80;90.00;;;;;;10459072;28;20311;-78
2023/10/17 03:56:44;;;;;;;5.10;4.60;;;7.80;90.00;;;;;;10465462;28;20254;-78
2023/10/17 04:02:12;;;;;;;5.00;4.60;;;7.80;90.00;;;;;;10447879;28;20233;-79
2023/10/17 04:07:36;;;;;;;4.53;4.23;;;7.80;89.70;;;;;;10455277;28;20208;-79
2023/10/17 04:13:17;;;;;;;4.70;4.30;;;7.90;89.70;;;;;;10464265;28;20665;-79
2023/10/17 04:18:39;;;;;;;6.47;4.93;;;7.90;90.00;;;;;;10456072;28;20291;-79
2023/10/17 04:24:05;;;;;;;5.53;5.03;;;8.00;90.00;;;;;;10444745;28;20190;-78
2023/10/17 04:29:29;;;;;;;4.50;4.10;;;8.00;89.70;;;;;;10460570;28;20231;-79
2023/10/17 04:34:52;;;;;;;5.30;4.80;;;8.00;89.90;;;;;;10455275;28;20221;-79
2023/10/17 04:40:36;;;;;;;4.70;4.40;;;8.10;90.00;;;;;;10453080;28;20217;-78
2023/10/17 04:45:59;;;;;;;5.23;4.83;;;8.10;89.90;;;;;;10446605;28;20197;-79
2023/10/17 04:51:26;;;;;;;5.93;5.43;;;8.10;89.70;;;;;;10443514;28;20240;-78
2023/10/17 04:56:59;;;;;;;5.33;4.93;;;8.10;90.00;;;;;;10462105;28;20217;-79
2023/10/17 05:02:36;;;;;;;5.67;5.23;;;8.10;90.20;;;;;;10433432;28;20224;-78
2023/10/17 06:33:19;;;;;;;6.60;6.00;;;8.70;90.10;;;;;;10452477;28;20219;-79
2023/10/17 06:38:48;;;;;;;5.80;5.30;;;8.80;90.40;;;;;;10459514;28;20227;-79
2023/10/17 06:44:15;;;;;;;7.10;6.03;;;8.90;90.00;;;;;;10458320;28;20213;-79
2023/10/17 06:50:11;;;;;;;6.20;5.70;;;9.00;90.10;;;;;;10479483;28;20225;-77
2023/10/17 06:55:38;;;;;;;12.10;6.03;;;9.00;90.30;;;;;;10463444;28;20228;-78
2023/10/17 07:01:04;;;;;;;6.30;5.03;;;9.20;89.90;;;;;;10471587;28;20691;-79
2023/10/17 07:06:27;;;;;;;7.40;6.47;;;9.30;90.20;;;;;;10480101;28;20208;-78
2023/10/17 07:11:52;;;;;;;7.47;6.67;;;9.50;89.00;;;;;;10481550;28;20221;-78
2023/10/17 07:17:25;;;;;;;7.13;6.43;;;9.60;88.40;;;;;;10492250;28;20674;-75
2023/10/17 07:22:53;;;;;;;15.80;6.70;;;9.70;88.10;;;;;;10463174;28;20688;-78
2023/10/17 07:28:22;;;;;;;7.40;6.40;;;9.80;88.00;;;;;;10510127;28;20300;-79
2023/10/17 07:33:44;;;;;;;7.83;6.50;;;9.80;87.40;;;;;;10449045;28;20343;-78
2023/10/17 07:39:07;;;;;;;7.63;6.93;;;9.90;88.10;;;;;;10443047;28;20256;-78
2023/10/17 07:44:34;;;;;;;7.07;6.37;;;10.00;86.50;;;;;;10459092;28;20336;-77
2023/10/17 07:49:59;;;;;;;7.30;6.70;;;10.20;86.30;;;;;;10450280;28;20316;-78
2023/10/17 07:55:34;;;;;;;10.30;6.97;;;10.30;86.00;;;;;;10434290;28;20232;-78
2023/10/17 08:00:58;;;;;;;8.80;7.13;;;10.40;86.00;;;;;;10433073;28;20218;-79
2023/10/17 08:06:22;;;;;;;7.53;6.93;;;10.60;85.50;;;;;;10454254;28;20206;-79
2023/10/17 08:11:46;;;;;;;8.10;7.30;;;10.60;84.80;;;;;;10454745;28;20601;-79
2023/10/17 08:17:10;;;;;;;10.37;9.37;;;10.70;84.80;;;;;;10446151;28;20221;-77
2023/10/17 08:22:54;;;;;;;9.97;9.10;;;10.80;84.50;;;;;;10453982;28;20591;-78
2023/10/17 08:28:31;;;;;;;8.90;8.00;;;10.90;82.90;;;;;;10450569;28;20224;-78
2023/10/17 08:34:04;;;;;;;9.37;8.43;;;11.00;83.20;;;;;;10457962;28;20351;-78
2023/10/17 08:39:51;;;;;;;9.37;8.40;;;11.00;83.10;;;;;;10453986;28;20255;-79
2023/10/17 08:45:16;;;;;;;9.80;8.90;;;11.10;83.30;;;;;;10445760;28;20628;-79
2023/10/17 08:50:40;;;;;;;11.20;9.93;;;11.20;82.80;;;;;;10456896;28;20233;-78
2023/10/17 08:56:07;;;;;;;9.57;8.60;;;11.20;83.40;;;;;;10457328;28;20243;-79
2023/10/17 09:01:29;;;;;;;11.03;9.93;;;11.30;83.40;;;;;;10450468;28;20308;-79
2023/10/17 09:06:59;;;;;;;11.10;10.00;;;11.50;83.10;;;;;;10456763;28;20209;-78
2023/10/17 09:12:25;;;;;;;10.63;9.53;;;11.50;82.50;;;;;;10455168;28;20229;-79
2023/10/17 09:18:02;;;;;;;10.73;9.73;;;11.60;82.80;;;;;;10451694;28;20240;-77
2023/10/17 09:23:28;;;;;;;10.33;9.30;;;11.60;83.50;;;;;;10453896;28;20193;-77
2023/10/17 09:29:00;;;;;;;9.43;8.50;;;11.80;82.70;;;;;;10456429;28;20214;-79
2023/10/17 09:34:26;;;;;;;10.17;9.27;;;11.90;83.30;;;;;;10450706;28;20209;-78
2023/10/17 09:39:51;;;;;;;9.97;8.93;;;12.10;82.70;;;;;;10455593;28;20229;-77
2023/10/17 09:45:14;;;;;;;9.53;8.73;;;12.20;82.40;;;;;;10448788;28;20208;-77
2023/10/17 09:50:38;;;;;;;9.40;8.50;;;12.30;83.30;;;;;;10439294;28;20259;-77
2023/10/17 09:56:06;;;;;;;11.13;9.87;;;12.50;83.20;;;;;;10459316;28;20218;-78
2023/10/17 10:01:31;;;;;;;10.87;8.97;;;12.60;83.60;;;;;;10462265;28;20213;-76
2023/10/17 10:07:20;;;;;;;12.87;10.47;;;12.80;83.40;;;;;;10472328;28;20615;-78
2023/10/17 10:13:01;;;;;;;10.03;9.00;;;13.00;84.10;;;;;;10462558;28;20222;-78
2023/10/17 10:18:58;;;;;;;9.80;8.83;;;13.10;81.40;;;;;;10453381;28;20240;-78
2023/10/17 10:24:22;;;;;;;10.63;9.57;;;13.10;81.40;;;;;;10453030;28;20679;-78
2023/10/17 10:29:49;;;;;;;10.27;9.20;;;13.10;81.40;;;;;;10458701;28;20284;-78
2023/10/17 10:35:12;;;;;;;11.60;10.40;;;13.20;80.70;;;;;;10452400;28;20220;-78
2023/10/17 10:40:40;;;;;;;10.57;8.70;;;13.20;79.70;;;;;;10461231;28;20292;-77
2023/10/17 10:46:03;;;;;;;12.00;10.33;;;13.30;81.50;;;;;;10463540;28;20212;-78
2023/10/17 10:51:25;;;;;;;13.70;10.63;;;13.40;80.00;;;;;;10452661;28;20245;-77
2023/10/17 10:56:51;;;;;;;11.40;9.90;;;13.40;81.60;;;;;;10457065;28;20228;-78
2023/10/17 11:02:15;;;;;;;15.80;10.60;;;13.50;81.30;;;;;;10438755;28;20241;-78
2023/10/17 11:07:38;;;;;;;11.80;10.70;;;13.60;81.00;;;;;;10462261;28;20217;-78
2023/10/17 11:13:01;;;;;;;10.80;9.70;;;13.60;82.40;;;;;;10450879;28;20212;-78
2023/10/17 11:18:25;;;;;;;12.10;10.77;;;13.60;81.60;;;;;;10452042;28;20229;-76
2023/10/17 11:23:50;;;;;;;11.63;10.53;;;13.60;82.30;;;;;;10458703;28;20198;-77
2023/10/17 11:29:13;;;;;;;10.77;9.60;;;13.70;82.50;;;;;;10440802;28;20721;-77
2023/10/17 11:34:37;;;;;;;10.30;9.17;;;13.80;82.40;;;;;;10452881;28;20624;-77
2023/10/17 11:40:18;;;;;;;9.80;8.80;;;13.80;82.90;;;;;;10453797;28;20210;-78
2023/10/17 11:45:41;;;;;;;11.30;10.17;;;13.90;82.00;;;;;;10447207;28;20718;-77
2023/10/17 11:51:12;;;;;;;10.20;9.10;;;13.90;82.60;;;;;;10429446;28;20718;-78
2023/10/17 11:56:36;;;;;;;11.40;10.20;;;13.90;82.40;;;;;;10457295;28;20213;-78
2023/10/17 12:02:02;;;;;;;11.13;10.03;;;13.80;83.10;;;;;;10447747;28;20336;-78
2023/10/17 12:07:25;;;;;;;11.57;10.40;;;13.90;83.90;;;;;;10437649;28;20201;-78
2023/10/17 12:12:49;;;;;;;11.90;9.73;;;13.90;83.80;;;;;;10452242;28;20224;-78
2023/10/17 12:18:14;;;;;;;12.10;9.63;;;14.00;83.50;;;;;;10449034;28;20221;-78
2023/10/17 12:23:38;;;;;;;10.33;9.20;;;14.10;83.40;;;;;;10455083;28;20616;-78
2023/10/17 12:29:01;;;;;;;10.40;9.40;;;14.10;84.10;;;;;;10455080;28;20309;-78
2023/10/17 12:34:23;;;;;;;10.80;9.77;;;14.10;83.10;;;;;;10455755;28;20655;-78
2023/10/17 12:39:47;;;;;;;9.20;8.40;;;14.10;83.40;;;;;;10457503;28;20244;-78
2023/10/17 12:45:11;;;;;;;10.23;9.13;;;13.90;85.00;;;;;;10456147;28;20241;-78
2023/10/17 12:50:33;;;;;;;10.60;9.50;;;13.90;85.80;;;;;;10456604;28;20229;-78
2023/10/17 12:55:57;;;;;;;9.60;8.63;;;14.00;85.80;;;;;;10479527;28;20330;-78
2023/10/17 13:01:24;;;;;;;9.30;8.40;;;14.10;86.20;;;;;;10464694;28;20225;-78
2023/10/17 13:06:48;;;;;;;12.70;9.83;;;14.20;86.10;;;;;;10455813;28;20190;-78
2023/10/17 13:12:11;;;;;;;8.97;7.87;;;14.30;86.40;;;;;;10462759;28;20236;-78
2023/10/17 13:17:34;;;;;;;9.73;8.43;;;14.40;85.80;;;;;;10460754;28;20236;-78
2023/10/17 13:22:59;;;;;;;9.53;8.53;;;14.40;85.00;;;;;;10451057;28;20202;-78
2023/10/17 13:28:22;;;;;;;11.13;8.37;;;14.40;84.90;;;;;;10450106;28;20229;-78
2023/10/17 13:33:46;;;;;;;10.27;9.17;;;14.40;84.60;;;;;;10451342;28;20201;-78
2023/10/17 13:39:08;;;;;;;10.37;9.37;;;14.40;85.00;;;;;;10432537;28;20248;-78
2023/10/17 13:44:34;;;;;;;9.40;7.73;;;14.40;84.90;;;;;;10448756;28;20746;-79
2023/10/17 13:49:56;;;;;;;10.93;9.83;;;14.50;86.10;;;;;;10458190;28;20279;-78
2023/10/17 13:55:25;;;;;;;13.20;9.40;;;14.50;84.80;;;;;;10450338;28;20208;-77
2023/10/17 14:00:51;;;;;;;10.87;9.00;;;14.50;85.40;;;;;;10439583;28;20221;-78
2023/10/17 14:06:14;;;;;;;9.93;8.93;;;14.50;85.90;;;;;;10447496;28;20618;-79
2023/10/17 14:11:36;;;;;;;9.87;8.87;;;14.60;86.60;;;;;;10465182;28;20237;-78
2023/10/17 14:17:01;;;;;;;11.73;10.20;;;14.60;86.00;;;;;;10450709;28;20229;-77
2023/10/17 14:22:38;;;;;;;11.03;9.57;;;14.60;85.90;;;;;;10450599;28;20225;-78
2023/10/17 14:28:01;;;;;;;8.50;7.53;;;14.60;85.20;;;;;;10450192;28;20709;-78
2023/10/17 14:33:25;;;;;;;14.70;9.57;;;14.50;86.00;;;;;;10446237;28;20213;-77
2023/10/17 14:38:47;;;;;;;8.83;7.93;;;14.50;86.40;;;;;;10465046;28;20234;-78
2023/10/17 14:44:09;;;;;;;9.63;8.13;;;14.40;86.60;;;;;;10440655;28;20213;-77
2023/10/17 14:49:33;;;;;;;10.43;9.20;;;14.40;85.70;;;;;;10455848;28;20225;-78
2023/10/17 14:54:55;;;;;;;9.30;8.47;;;14.30;85.80;;;;;;10461264;28;20704;-78
2023/10/17 15:00:20;;;;;;;9.20;8.30;;;14.30;86.60;;;;;;10452820;28;20218;-78
2023/10/17 15:05:44;;;;;;;9.90;8.90;;;14.20;87.70;;;;;;10444183;28;20205;-78
2023/10/17 15:11:06;;;;;;;9.70;8.87;;;14.10;87.00;;;;;;10463634;28;20593;-78
2023/10/17 15:16:30;;;;;;;9.93;8.90;;;14.10;86.80;;;;;;10459025;28;20695;-78
2023/10/17 15:21:54;;;;;;;8.70;7.90;;;14.00;88.50;;;;;;10450794;28;20240;-80
2023/10/17 15:27:16;;;;;;;9.97;8.30;;;14.00;87.30;;;;;;10453698;28;20225;-80
2023/10/17 15:32:38;;;;;;;7.93;7.23;;;14.00;87.20;;;;;;10460182;28;20213;-78
2023/10/17 15:38:02;;;;;;;8.67;7.77;;;14.00;87.60;;;;;;10464487;28;20226;-80
2023/10/17 15:43:24;;;;;;;8.10;7.30;;;13.90;88.20;;;;;;10457193;28;20205;-80
2023/10/17 15:48:46;;;;;;;7.23;6.73;;;13.90;87.30;;;;;;10440241;28;20305;-80
2023/10/17 15:54:10;;;;;;;7.33;6.73;;;13.90;89.00;;;;;;10463015;28;20302;-77
2023/10/17 15:59:32;;;;;;;7.13;6.53;;;13.80;88.40;;;;;;10454426;28;20221;-80
2023/10/17 16:04:54;;;;;;;6.80;6.10;;;13.70;88.30;;;;;;10453270;28;20679;-80
2023/10/17 16:10:18;;;;;;;7.50;6.90;;;13.60;87.90;;;;;;10452741;28;20300;-80
2023/10/17 16:15:40;;;;;;;8.23;6.87;;;13.60;88.60;;;;;;10448082;28;20232;-80
2023/10/17 16:21:07;;;;;;;6.43;5.90;;;13.50;89.10;;;;;;10449673;28;20602;-79
2023/10/17 16:26:30;;;;;;;6.97;6.27;;;13.40;90.00;;;;;;10453455;28;20201;-79
2023/10/17 16:31:54;;;;;;;7.53;6.80;;;13.20;90.10;;;;;;10454561;28;20229;-79
2023/10/17 16:37:16;;;;;;;9.60;8.00;;;13.10;90.00;;;;;;10434456;28;20274;-79
2023/10/17 16:42:41;;;;;;;7.73;6.93;;;13.00;90.10;;;;;;10454850;28;20228;-80
2023/10/17 16:48:04;;;;;;;7.93;6.97;;;12.90;90.20;;;;;;10448953;28;20284;-79
2023/10/17 16:53:28;;;;;;;7.20;6.50;;;12.80;90.20;;;;;;10454188;28;20276;-79
2023/10/17 16:58:52;;;;;;;6.70;6.20;;;12.70;90.30;;;;;;10440228;28;20315;-79
2023/10/17 17:04:15;;;;;;;14.60;13.07;;;12.60;90.40;;;;;;10457427;28;20194;-79
2023/10/17 17:09:37;;;;;;;15.70;14.30;;;12.50;90.50;;;;;;10449320;28;20220;-80
2023/10/17 17:15:01;;;;;;;11.97;10.87;;;12.40;90.60;;;;;;10449434;28;20682;-79
2023/10/17 17:20:23;;;;;;;11.20;10.20;;;12.30;90.70;;;;;;10445259;28;20243;-79
2023/10/17 17:25:46;;;;;;;13.50;12.17;;;12.20;90.90;;;;;;10433013;28;20686;-80
2023/10/17 17:31:09;;;;;;;11.23;10.13;;;12.20;91.00;;;;;;10462038;28;20255;-79
2023/10/17 17:36:32;;;;;;;10.57;9.63;;;12.10;91.10;;;;;;10453545;28;20699;-80
2023/10/17 17:41:54;;;;;;;9.30;8.57;;;12.00;91.10;;;;;;10457999;28;20224;-79
2023/10/17 17:47:18;;;;;;;8.87;8.17;;;12.00;91.10;;;;;;10451794;28;20202;-79
2023/10/17 17:52:40;;;;;;;10.47;9.57;;;11.90;91.20;;;;;;10466064;28;20308;-79
2023/10/17 17:58:03;;;;;;;9.10;8.40;;;11.80;91.30;;;;;;10457697;28;20237;-79
2023/10/17 18:03:27;;;;;;;9.87;8.97;;;11.70;91.40;;;;;;10457184;28;20204;-79
2023/10/17 18:08:49;;;;;;;10.27;9.27;;;11.60;91.40;;;;;;10453401;28;20214;-79
2023/10/17 18:14:13;;;;;;;10.77;9.77;;;11.50;91.50;;;;;;10456453;28;20201;-78
2023/10/17 18:19:37;;;;;;;10.93;9.77;;;11.40;91.60;;;;;;10459716;28;20232;-79
2023/10/17 18:24:59;;;;;;;10.97;9.97;;;11.40;91.70;;;;;;10463663;28;20198;-79
2023/10/17 18:30:21;;;;;;;11.03;10.00;;;11.40;91.60;;;;;;10452374;28;20213;-80
2023/10/17 18:35:45;;;;;;;13.60;12.20;;;11.30;91.70;;;;;;10464569;28;20212;-79
2023/10/17 18:41:08;;;;;;;13.50;12.10;;;11.20;91.80;;;;;;10448892;28;20225;-79
2023/10/17 18:46:31;;;;;;;14.80;11.00;;;11.20;91.80;;;;;;10465222;28;20197;-80
2023/10/17 18:51:54;;;;;;;12.67;11.47;;;11.10;91.90;;;;;;10467950;28;20316;-79
2023/10/17 18:57:17;;;;;;;14.00;12.60;;;11.10;91.80;;;;;;10461508;28;20256;-79
2023/10/17 19:02:39;;;;;;;12.67;11.23;;;11.00;91.90;;;;;;10465369;28;20233;-79
2023/10/17 19:08:03;;;;;;;12.43;11.33;;;11.00;92.00;;;;;;10449197;28;20547;-79
2023/10/17 19:13:26;;;;;;;11.30;10.17;;;10.90;92.00;;;;;;10459260;28;20764;-77
2023/10/17 19:18:48;;;;;;;11.63;10.53;;;10.90;92.00;;;;;;10475103;28;20233;-77
2023/10/17 19:24:12;;;;;;;12.40;11.30;;;10.90;92.00;;;;;;10458674;28;20547;-79
2023/10/17 19:29:35;;;;;;;12.00;10.90;;;10.90;92.10;;;;;;10441734;28;20225;-77
2023/10/17 19:34:57;;;;;;;11.03;10.10;;;10.90;92.10;;;;;;10456697;28;20212;-78
2023/10/17 19:40:22;;;;;;;12.93;11.83;;;10.90;92.00;;;;;;10442209;28;20360;-76
2023/10/17 19:45:44;;;;;;;12.53;11.43;;;10.90;92.10;;;;;;10453938;28;20224;-77
2023/10/17 19:51:07;;;;;;;13.63;12.43;;;10.90;92.10;;;;;;10455168;28;20716;-79
2023/10/17 19:56:31;;;;;;;13.23;12.10;;;10.90;92.10;;;;;;10455365;28;20693;-79
2023/10/17 20:01:53;;;;;;;14.17;12.80;;;10.90;92.10;;;;;;10451782;28;20229;-77
2023/10/17 20:07:16;;;;;;;12.47;11.30;;;10.80;91.80;;;;;;10448523;28;20194;-79
2023/10/17 20:12:43;;;;;;;12.73;11.43;;;10.80;92.40;;;;;;10453426;28;20334;-79
2023/10/17 20:18:05;;;;;;;14.87;12.20;;;10.80;92.00;;;;;;10445527;28;20779;-79
2023/10/17 20:23:27;;;;;;;14.27;12.70;;;10.70;91.90;;;;;;10438175;28;20254;-79
2023/10/17 20:28:51;;;;;;;13.43;12.17;;;10.70;92.20;;;;;;10453496;28;20221;-78
2023/10/17 20:34:13;;;;;;;14.20;12.70;;;10.70;91.90;;;;;;10432176;28;20206;-79
2023/10/17 20:39:38;;;;;;;14.87;13.57;;;10.70;92.20;;;;;;10438691;28;20226;-78
2023/10/17 20:45:03;;;;;;;13.57;12.30;;;10.60;92.10;;;;;;10454417;28;20197;-78
2023/10/17 20:50:25;;;;;;;13.20;12.00;;;10.60;92.40;;;;;;10451489;28;20225;-78
2023/10/17 20:55:47;;;;;;;15.07;13.70;;;10.50;92.30;;;;;;10438198;28;20206;-79
2023/10/17 21:01:13;;;;;;;14.47;13.07;;;10.40;92.40;;;;;;10448781;28;20225;-79
2023/10/17 21:06:35;;;;;;;14.70;13.30;;;10.40;92.40;;;;;;10462213;28;20265;-79
2023/10/17 21:11:58;;;;;;;14.57;13.27;;;10.30;92.30;;;;;;10453889;28;20335;-79
2023/10/17 21:17:21;;;;;;;14.03;12.73;;;10.30;92.40;;;;;;10448295;28;20736;-79
2023/10/17 21:22:44;;;;;;;13.37;12.10;;;10.20;92.50;;;;;;10453091;28;20230;-79
2023/10/17 21:28:07;;;;;;;14.10;12.80;;;10.20;92.50;;;;;;10449045;28;20211;-79
2023/10/17 21:33:32;;;;;;;13.27;11.97;;;10.10;92.50;;;;;;10441658;28;20228;-79
2023/10/17 21:38:54;;;;;;;12.90;11.60;;;10.10;92.50;;;;;;10453688;28;20690;-79
2023/10/17 21:44:16;;;;;;;14.50;13.10;;;10.00;92.40;;;;;;10466752;28;20596;-78
2023/10/17 21:49:40;;;;;;;16.50;13.40;;;10.00;92.40;;;;;;10449009;28;20242;-78
2023/10/17 21:55:03;;;;;;;14.17;12.90;;;9.90;93.10;;;;;;10446732;28;20670;-79
2023/10/17 22:00:37;;;;;;;11.97;10.97;;;9.90;93.20;;;;;;10459199;28;20233;-79
2023/10/17 22:06:06;;;;;;;14.37;12.20;;;9.90;93.20;;;;;;10458570;28;20210;-79
2023/10/17 22:11:29;;;;;;;12.83;11.70;;;9.80;93.10;;;;;;10440189;28;20220;-77
2023/10/17 22:16:51;;;;;;;12.97;11.73;;;9.80;93.20;;;;;;10456727;28;20295;-79
2023/10/17 22:22:15;;;;;;;12.67;11.57;;;9.70;93.20;;;;;;10452175;28;20221;-78
2023/10/17 22:27:38;;;;;;;12.80;11.50;;;9.70;93.00;;;;;;10460116;28;20213;-79
2023/10/17 22:33:00;;;;;;;12.80;11.67;;;9.70;93.20;;;;;;10458915;28;20206;-79
2023/10/17 22:38:23;;;;;;;12.50;11.23;;;9.60;93.10;;;;;;10456118;28;20591;-79
2023/10/17 22:43:46;;;;;;;13.03;11.83;;;9.60;93.10;;;;;;10458802;28;20231;-79
2023/10/17 22:49:11;;;;;;;12.23;11.13;;;9.60;93.10;;;;;;10451942;28;20312;-79
2023/10/17 22:54:35;;;;;;;11.57;10.50;;;9.50;93.00;;;;;;10459735;28;20259;-79
2023/10/17 22:59:57;;;;;;;13.37;12.27;;;9.50;93.20;;;;;;10465288;28;20232;-79
2023/10/17 23:05:20;;;;;;;13.30;11.90;;;9.40;93.20;;;;;;10453189;28;20204;-79
2023/10/17 23:10:43;;;;;;;9.30;8.60;;;9.40;93.20;;;;;;10460317;28;20252;-79
2023/10/17 23:16:08;;;;;;;12.83;11.67;;;9.40;93.20;;;;;;10456396;28;20202;-79
2023/10/17 23:21:31;;;;;;;13.67;12.10;;;9.40;93.10;;;;;;10457210;28;20253;-79
2023/10/17 23:26:55;;;;;;;12.70;11.60;;;9.30;93.40;;;;;;10458240;28;20217;-79
2023/10/17 23:32:17;;;;;;;15.07;12.37;;;9.30;93.10;;;;;;10454051;28;20225;-79
2023/10/17 23:37:42;;;;;;;12.80;11.60;;;9.30;93.30;;;;;;10454789;28;20301;-79
2023/10/17 23:43:08;;;;;;;12.27;11.17;;;9.30;93.30;;;;;;10444704;28;20271;-77
2023/10/17 23:48:30;;;;;;;12.90;11.60;;;9.30;93.40;;;;;;10453840;28;20694;-77
2023/10/17 23:53:53;;;;;;;11.40;10.40;;;9.30;93.40;;;;;;10448302;28;20209;-77
2023/10/17 23:59:17;;;;;;;13.03;11.83;;;9.30;93.30;;;;;;10434551;28;20718;-77
